Time;durP1;ratioP1;P1;durP2;ratioP2;P2;SDS_P1;SDS_P2;PMS_P1;PMS_P2;Temp;Humidity;BMP_temperature;BMP_pressure;BME280_temperature;BME280_humidity;BME280_pressure;Samples;Min_cycle;Max_cycle;Signal;HPM_P1;HPM_P2
2023/09/09 00:01:48;;;;;;;13.35;5.60;;;;;;;;;;5029500;28;20134;-69
2023/09/09 00:04:13;;;;;;;13.88;6.38;;;;;;;;;;5029640;28;20014;-69
2023/09/09 00:06:38;;;;;;;12.90;5.22;;;;;;;;;;5028206;28;20464;-70
2023/09/09 00:09:05;;;;;;;13.02;5.72;;;;;;;;;;5029314;28;20447;-70
2023/09/09 00:11:30;;;;;;;9.18;5.05;;;;;;;;;;5029306;28;20017;-69
2023/09/09 00:13:56;;;;;;;11.27;6.25;;;;;;;;;;5028632;28;20032;-70
2023/09/09 00:16:21;;;;;;;10.98;5.25;;;;;;;;;;5028519;28;20105;-66
2023/09/09 00:18:46;;;;;;;13.65;5.97;;;;;;;;;;5028959;28;20423;-70
2023/09/09 00:21:14;;;;;;;12.32;5.88;;;;;;;;;;5028474;28;20022;-69
2023/09/09 00:23:39;;;;;;;11.10;5.75;;;;;;;;;;5029024;28;20034;-68
2023/09/09 00:26:04;;;;;;;14.07;6.20;;;;;;;;;;5023117;28;20017;-69
2023/09/09 00:28:29;;;;;;;14.02;6.00;;;;;;;;;;5020961;28;20044;-69
2023/09/09 00:30:54;;;;;;;15.10;6.40;;;;;;;;;;5029038;28;20014;-69
2023/09/09 00:33:20;;;;;;;12.82;6.40;;;;;;;;;;5028421;28;20087;-70
2023/09/09 00:35:45;;;;;;;12.48;5.38;;;;;;;;;;5028753;28;20014;-69
2023/09/09 00:38:11;;;;;;;13.57;6.25;;;;;;;;;;5028079;28;20025;-67
2023/09/09 00:40:36;;;;;;;13.75;5.70;;;;;;;;;;5025280;28;20049;-71
2023/09/09 00:43:02;;;;;;;13.77;6.28;;;;;;;;;;5042115;23;20069;-71
2023/09/09 00:45:27;;;;;;;17.38;6.28;;;;;;;;;;5005555;28;20475;-72
2023/09/09 00:47:52;;;;;;;15.43;6.40;;;;;;;;;;5009179;28;20025;-71
2023/09/09 00:50:19;;;;;;;16.20;6.88;;;;;;;;;;5011462;28;20025;-68
2023/09/09 00:52:44;;;;;;;12.07;6.47;;;;;;;;;;5011091;28;20018;-71
2023/09/09 00:55:10;;;;;;;14.75;6.85;;;;;;;;;;5009218;28;20080;-71
2023/09/09 00:57:36;;;;;;;17.10;6.47;;;;;;;;;;5010472;28;20053;-70
2023/09/09 01:00:05;;;;;;;12.40;6.35;;;;;;;;;;5010928;28;20021;-69
2023/09/09 01:02:31;;;;;;;12.52;5.75;;;;;;;;;;5010266;28;20025;-72
2023/09/09 01:04:59;;;;;;;11.73;6.00;;;;;;;;;;5009941;28;20025;-71
2023/09/09 01:07:25;;;;;;;11.93;6.63;;;;;;;;;;5008953;28;20022;-69
2023/09/09 01:09:50;;;;;;;11.45;5.97;;;;;;;;;;5010324;28;20459;-71
2023/09/09 01:12:15;;;;;;;14.32;6.55;;;;;;;;;;5010152;28;20079;-71
2023/09/09 01:14:40;;;;;;;16.15;7.50;;;;;;;;;;5011219;28;20148;-70
2023/09/09 01:17:06;;;;;;;16.80;6.32;;;;;;;;;;5010093;28;20021;-72
2023/09/09 01:19:31;;;;;;;11.48;6.03;;;;;;;;;;5010984;28;20022;-68
2023/09/09 01:22:02;;;;;;;10.55;6.60;;;;;;;;;;5010728;28;20033;-72
2023/09/09 01:24:28;;;;;;;12.98;6.38;;;;;;;;;;5010821;28;20112;-72
2023/09/09 01:26:53;;;;;;;12.60;6.40;;;;;;;;;;5010346;28;20092;-70
2023/09/09 01:29:18;;;;;;;15.88;6.60;;;;;;;;;;5010601;28;20109;-70
2023/09/09 01:31:43;;;;;;;11.95;6.47;;;;;;;;;;5010808;28;20049;-72
2023/09/09 01:34:08;;;;;;;14.85;7.47;;;;;;;;;;5010505;28;20060;-70
2023/09/09 01:36:34;;;;;;;14.63;6.50;;;;;;;;;;5010374;28;20102;-70
2023/09/09 01:38:59;;;;;;;10.90;6.47;;;;;;;;;;5010690;28;20043;-72
2023/09/09 01:41:24;;;;;;;13.20;6.75;;;;;;;;;;5002525;28;20030;-71
2023/09/09 01:43:49;;;;;;;17.35;7.00;;;;;;;;;;5010359;28;20125;-72
2023/09/09 01:46:15;;;;;;;12.20;5.70;;;;;;;;;;5010087;28;20079;-72
2023/09/09 01:48:40;;;;;;;12.57;6.80;;;;;;;;;;4994478;28;20429;-71
2023/09/09 01:51:06;;;;;;;12.57;6.35;;;;;;;;;;5010223;28;20029;-72
2023/09/09 01:53:31;;;;;;;15.45;6.82;;;;;;;;;;5010283;28;20032;-72
2023/09/09 01:55:58;;;;;;;12.70;6.20;;;;;;;;;;5010142;28;21310;-70
2023/09/09 01:58:23;;;;;;;14.88;6.85;;;;;;;;;;5009895;28;20027;-70
2023/09/09 02:00:48;;;;;;;15.38;6.20;;;;;;;;;;5010290;28;20386;-71
2023/09/09 02:03:13;;;;;;;11.02;6.07;;;;;;;;;;5009982;28;20525;-72
2023/09/09 02:05:39;;;;;;;12.02;6.35;;;;;;;;;;5010012;28;20487;-72
2023/09/09 02:08:04;;;;;;;12.05;6.47;;;;;;;;;;5009228;28;20507;-71
2023/09/09 02:10:29;;;;;;;14.07;6.45;;;;;;;;;;5009860;28;20026;-70
2023/09/09 02:12:55;;;;;;;15.60;6.75;;;;;;;;;;5010383;28;20022;-71
2023/09/09 02:15:20;;;;;;;13.68;6.85;;;;;;;;;;5010265;28;20084;-70
2023/09/09 02:17:46;;;;;;;14.32;6.97;;;;;;;;;;5009203;28;20464;-71
2023/09/09 02:20:11;;;;;;;14.60;6.60;;;;;;;;;;5009677;28;20040;-70
2023/09/09 02:22:37;;;;;;;14.18;7.03;;;;;;;;;;5010203;28;20101;-67
2023/09/09 02:25:03;;;;;;;13.75;6.45;;;;;;;;;;5009030;28;20022;-70
2023/09/09 02:27:28;;;;;;;12.00;6.60;;;;;;;;;;5009521;28;20045;-68
2023/09/09 02:29:54;;;;;;;13.32;6.68;;;;;;;;;;5007994;28;20447;-72
2023/09/09 02:32:19;;;;;;;16.63;6.50;;;;;;;;;;5009287;28;20097;-72
2023/09/09 02:34:45;;;;;;;10.57;6.20;;;;;;;;;;5009181;28;20637;-71
2023/09/09 02:37:18;;;;;;;13.23;6.72;;;;;;;;;;5008709;28;20017;-70
2023/09/09 02:39:47;;;;;;;14.63;7.10;;;;;;;;;;5008394;28;20028;-72
2023/09/09 02:42:13;;;;;;;11.57;6.65;;;;;;;;;;5001951;28;20398;-70
2023/09/09 02:44:39;;;;;;;13.27;6.85;;;;;;;;;;5008820;28;20045;-71
2023/09/09 02:47:05;;;;;;;13.65;6.63;;;;;;;;;;5004117;28;20364;-72
2023/09/09 02:49:31;;;;;;;15.73;6.53;;;;;;;;;;4997260;28;20026;-71
2023/09/09 02:51:56;;;;;;;13.50;6.75;;;;;;;;;;5008733;28;20110;-71
2023/09/09 02:54:21;;;;;;;12.93;6.72;;;;;;;;;;5006788;28;20022;-72
2023/09/09 02:56:46;;;;;;;13.35;6.05;;;;;;;;;;5009861;28;20062;-70
2023/09/09 02:59:12;;;;;;;12.27;6.38;;;;;;;;;;5009086;28;20025;-72
2023/09/09 03:01:37;;;;;;;12.23;6.53;;;;;;;;;;5009018;28;20034;-69
2023/09/09 03:04:02;;;;;;;11.43;7.07;;;;;;;;;;5008861;28;20033;-72
2023/09/09 03:06:27;;;;;;;11.18;6.13;;;;;;;;;;5009013;28;20037;-73
2023/09/09 03:08:53;;;;;;;11.55;6.47;;;;;;;;;;5007849;28;20505;-72
2023/09/09 03:11:18;;;;;;;13.93;7.28;;;;;;;;;;5008810;28;20428;-69
2023/09/09 03:13:43;;;;;;;17.63;7.10;;;;;;;;;;5006808;28;20022;-70
2023/09/09 03:16:08;;;;;;;12.95;7.47;;;;;;;;;;5007175;28;20041;-70
2023/09/09 03:18:34;;;;;;;14.05;7.13;;;;;;;;;;5007874;28;20511;-70
2023/09/09 03:20:59;;;;;;;12.48;6.25;;;;;;;;;;5007798;28;20426;-70
2023/09/09 03:23:24;;;;;;;15.95;6.72;;;;;;;;;;5008317;28;20402;-71
2023/09/09 03:25:49;;;;;;;10.07;6.05;;;;;;;;;;5008549;28;20060;-72
2023/09/09 03:28:14;;;;;;;12.48;6.85;;;;;;;;;;5008182;28;20033;-69
2023/09/09 03:30:56;;;;;;;12.90;6.43;;;;;;;;;;5008429;28;20032;-71
2023/09/09 03:33:21;;;;;;;13.88;6.78;;;;;;;;;;5008088;28;20041;-70
2023/09/09 03:35:46;;;;;;;12.50;6.65;;;;;;;;;;5007811;28;20014;-70
2023/09/09 03:38:12;;;;;;;14.98;6.95;;;;;;;;;;5005288;28;20013;-71
2023/09/09 03:40:37;;;;;;;12.38;6.22;;;;;;;;;;5000019;28;20011;-68
2023/09/09 03:43:02;;;;;;;19.58;7.78;;;;;;;;;;5007804;28;20029;-71
2023/09/09 03:45:27;;;;;;;11.63;6.38;;;;;;;;;;5008215;28;20601;-71
2023/09/09 03:47:53;;;;;;;12.23;6.05;;;;;;;;;;4997662;28;20024;-70
2023/09/09 03:50:18;;;;;;;13.38;5.95;;;;;;;;;;5001553;28;20030;-71
2023/09/09 03:52:43;;;;;;;11.73;6.25;;;;;;;;;;5007789;28;20022;-71
2023/09/09 03:55:08;;;;;;;12.77;7.20;;;;;;;;;;5008084;28;20022;-68
2023/09/09 03:57:34;;;;;;;11.13;6.40;;;;;;;;;;5007907;28;20032;-70
2023/09/09 03:59:59;;;;;;;13.30;7.65;;;;;;;;;;5007787;28;20057;-71
2023/09/09 04:02:24;;;;;;;18.23;7.43;;;;;;;;;;5007850;28;20109;-71
2023/09/09 04:04:49;;;;;;;18.77;6.68;;;;;;;;;;5008550;28;20294;-71
2023/09/09 04:07:14;;;;;;;12.30;6.88;;;;;;;;;;5007681;28;20102;-68
2023/09/09 04:09:40;;;;;;;14.35;7.10;;;;;;;;;;5007832;28;20038;-70
2023/09/09 04:12:06;;;;;;;12.23;6.60;;;;;;;;;;5007923;28;20100;-70
2023/09/09 04:14:32;;;;;;;15.07;6.60;;;;;;;;;;5022929;28;20109;-70
2023/09/09 04:16:57;;;;;;;13.88;7.07;;;;;;;;;;5007365;28;20026;-70
2023/09/09 04:19:22;;;;;;;14.85;7.05;;;;;;;;;;5008227;28;20025;-71
2023/09/09 04:21:49;;;;;;;18.02;6.38;;;;;;;;;;5011627;28;20022;-72
2023/09/09 04:24:14;;;;;;;16.30;7.70;;;;;;;;;;5011872;28;20018;-68
2023/09/09 04:26:40;;;;;;;11.00;6.80;;;;;;;;;;5011243;28;20144;-70
2023/09/09 04:29:05;;;;;;;11.88;6.43;;;;;;;;;;5010176;28;20374;-68
2023/09/09 04:31:30;;;;;;;16.30;7.55;;;;;;;;;;4999955;28;20626;-70
2023/09/09 04:33:55;;;;;;;16.45;7.53;;;;;;;;;;5011651;28;20042;-69
2023/09/09 04:36:20;;;;;;;18.05;6.57;;;;;;;;;;5011062;28;20605;-71
2023/09/09 04:38:46;;;;;;;12.00;6.70;;;;;;;;;;4999064;28;20022;-71
2023/09/09 04:41:11;;;;;;;16.45;6.82;;;;;;;;;;4991987;28;20102;-70
2023/09/09 04:43:36;;;;;;;15.20;6.50;;;;;;;;;;5010931;28;20034;-68
2023/09/09 04:46:01;;;;;;;12.75;7.03;;;;;;;;;;5010850;28;20033;-71
2023/09/09 04:48:27;;;;;;;13.32;6.25;;;;;;;;;;4996585;28;20025;-68
2023/09/09 04:50:52;;;;;;;14.98;7.60;;;;;;;;;;5009633;28;20026;-69
2023/09/09 04:53:17;;;;;;;19.00;7.30;;;;;;;;;;5011014;28;20495;-69
2023/09/09 04:55:42;;;;;;;13.75;7.22;;;;;;;;;;5010880;28;20041;-67
2023/09/09 04:58:10;;;;;;;17.23;6.70;;;;;;;;;;5001919;28;20033;-71
2023/09/09 05:00:35;;;;;;;12.40;7.13;;;;;;;;;;5005055;28;20014;-69
2023/09/09 05:03:00;;;;;;;12.95;6.85;;;;;;;;;;5010406;28;20014;-70
2023/09/09 05:05:25;;;;;;;15.32;6.68;;;;;;;;;;5009973;28;20022;-70
2023/09/09 05:07:51;;;;;;;17.10;7.05;;;;;;;;;;5010347;28;20160;-70
2023/09/09 05:10:18;;;;;;;12.50;6.22;;;;;;;;;;5010275;28;20022;-68
2023/09/09 05:12:44;;;;;;;13.68;7.15;;;;;;;;;;5009957;28;20016;-70
2023/09/09 05:15:10;;;;;;;15.57;7.18;;;;;;;;;;5010255;28;20022;-70
2023/09/09 05:17:35;;;;;;;11.38;6.47;;;;;;;;;;5009919;28;20034;-70
2023/09/09 05:20:00;;;;;;;12.93;6.65;;;;;;;;;;5009251;28;20041;-71
2023/09/09 05:22:26;;;;;;;12.85;7.05;;;;;;;;;;5008065;28;20491;-69
2023/09/09 05:24:51;;;;;;;12.20;6.90;;;;;;;;;;5010504;28;20029;-71
2023/09/09 05:27:16;;;;;;;16.25;6.90;;;;;;;;;;5010538;28;20383;-70
2023/09/09 05:29:43;;;;;;;18.45;7.22;;;;;;;;;;5007947;28;20029;-67
2023/09/09 05:32:08;;;;;;;15.27;6.65;;;;;;;;;;5003396;28;20014;-71
2023/09/09 05:34:33;;;;;;;14.73;7.30;;;;;;;;;;5009822;28;20014;-69
2023/09/09 05:36:58;;;;;;;15.05;7.03;;;;;;;;;;5009449;28;20079;-71
2023/09/09 05:39:24;;;;;;;12.05;6.18;;;;;;;;;;5009685;28;20041;-71
2023/09/09 05:41:49;;;;;;;12.18;6.00;;;;;;;;;;5001432;28;20041;-71
2023/09/09 05:44:14;;;;;;;12.73;6.50;;;;;;;;;;5009113;28;20030;-68
2023/09/09 05:46:39;;;;;;;18.02;6.47;;;;;;;;;;5009657;28;20042;-68
2023/09/09 05:49:04;;;;;;;12.25;6.40;;;;;;;;;;5010521;28;20022;-71
2023/09/09 05:51:30;;;;;;;19.75;6.68;;;;;;;;;;5010329;28;20459;-70
2023/09/09 05:53:55;;;;;;;13.50;6.22;;;;;;;;;;5010239;28;20048;-70
2023/09/09 05:56:20;;;;;;;12.77;6.70;;;;;;;;;;5009530;28;20048;-70
2023/09/09 05:58:45;;;;;;;11.05;6.13;;;;;;;;;;5007621;28;20420;-71
2023/09/09 06:01:11;;;;;;;13.95;7.05;;;;;;;;;;5009440;28;20029;-69
2023/09/09 06:03:36;;;;;;;12.48;6.32;;;;;;;;;;5007186;28;20042;-73
2023/09/09 06:06:02;;;;;;;11.40;6.07;;;;;;;;;;5008194;28;20091;-68
2023/09/09 06:08:27;;;;;;;11.43;6.10;;;;;;;;;;5007399;28;20040;-73
2023/09/09 06:10:53;;;;;;;10.32;5.45;;;;;;;;;;4994588;28;20026;-72
2023/09/09 06:13:18;;;;;;;14.27;5.57;;;;;;;;;;5024608;28;20456;-74
2023/09/09 06:15:43;;;;;;;11.60;5.90;;;;;;;;;;5008656;28;20107;-71
2023/09/09 06:18:08;;;;;;;11.30;5.82;;;;;;;;;;5005986;28;20474;-71
2023/09/09 06:20:34;;;;;;;12.70;6.72;;;;;;;;;;5010230;28;20387;-71
2023/09/09 06:22:59;;;;;;;10.52;5.70;;;;;;;;;;5009970;28;20475;-71
2023/09/09 06:25:24;;;;;;;10.18;6.38;;;;;;;;;;5010279;28;20022;-79
2023/09/09 06:27:50;;;;;;;11.48;5.70;;;;;;;;;;5008663;28;20030;-69
2023/09/09 06:30:15;;;;;;;14.65;6.00;;;;;;;;;;5010365;28;20030;-71
2023/09/09 06:32:40;;;;;;;12.35;6.35;;;;;;;;;;5010085;28;20100;-70
2023/09/09 06:35:06;;;;;;;10.73;6.43;;;;;;;;;;5009111;28;20114;-71
2023/09/09 06:37:32;;;;;;;9.35;5.63;;;;;;;;;;5008141;28;20029;-70
2023/09/09 06:39:57;;;;;;;15.30;6.90;;;;;;;;;;5009046;28;20022;-71
2023/09/09 06:44:49;;;;;;;11.93;5.47;;;;;;;;;;5006642;28;20197;-68
2023/09/09 06:47:14;;;;;;;13.75;5.97;;;;;;;;;;5009827;28;20364;-69
2023/09/09 06:49:40;;;;;;;14.38;6.55;;;;;;;;;;4998046;28;20388;-69
2023/09/09 06:52:05;;;;;;;9.70;5.65;;;;;;;;;;4998315;28;20137;-69
2023/09/09 06:54:31;;;;;;;18.92;6.38;;;;;;;;;;4997821;28;20022;-70
2023/09/09 06:56:56;;;;;;;12.73;5.88;;;;;;;;;;5004206;28;20037;-68
2023/09/09 06:59:21;;;;;;;12.47;5.87;;;;;;;;;;4991608;28;20030;-69
2023/09/09 07:01:46;;;;;;;12.93;5.85;;;;;;;;;;4991286;28;20338;-69
2023/09/09 07:04:18;;;;;;;10.82;5.40;;;;;;;;;;5053120;28;20370;-66
2023/09/09 07:06:43;;;;;;;14.02;5.43;;;;;;;;;;5046627;28;20031;-70
2023/09/09 07:09:09;;;;;;;12.93;5.63;;;;;;;;;;5046610;28;20115;-68
2023/09/09 07:11:34;;;;;;;10.95;5.65;;;;;;;;;;5047006;28;20031;-69
2023/09/09 07:14:00;;;;;;;12.00;5.97;;;;;;;;;;5044274;28;20025;-68
2023/09/09 07:16:25;;;;;;;11.40;5.75;;;;;;;;;;5044750;28;20013;-70
2023/09/09 07:18:50;;;;;;;8.18;4.85;;;;;;;;;;5046673;28;20025;-68
2023/09/09 07:21:15;;;;;;;14.07;5.57;;;;;;;;;;5042894;28;20192;-73
2023/09/09 07:23:41;;;;;;;11.98;5.70;;;;;;;;;;5046878;28;20425;-71
2023/09/09 07:26:06;;;;;;;14.18;5.57;;;;;;;;;;5039967;28;20451;-70
2023/09/09 07:28:31;;;;;;;10.52;5.05;;;;;;;;;;5047715;28;20013;-70
2023/09/09 07:31:00;;;;;;;10.63;5.35;;;;;;;;;;5047139;28;20021;-69
2023/09/09 07:33:25;;;;;;;9.38;4.75;;;;;;;;;;5044938;28;20226;-68
2023/09/09 07:35:52;;;;;;;11.82;5.40;;;;;;;;;;5040840;28;20149;-69
2023/09/09 07:38:17;;;;;;;11.93;5.65;;;;;;;;;;5048197;28;20025;-66
2023/09/09 07:40:42;;;;;;;10.60;5.13;;;;;;;;;;5048997;28;20044;-72
2023/09/09 07:43:11;;;;;;;10.68;5.22;;;;;;;;;;5043586;28;20069;-69
2023/09/09 07:45:36;;;;;;;9.95;5.60;;;;;;;;;;5046501;28;20556;-70
2023/09/09 07:48:01;;;;;;;13.55;4.68;;;;;;;;;;5034039;28;20026;-69
2023/09/09 07:50:26;;;;;;;7.45;4.40;;;;;;;;;;5046587;28;20043;-70
2023/09/09 07:52:52;;;;;;;13.30;4.60;;;;;;;;;;5041471;28;20041;-69
2023/09/09 07:55:17;;;;;;;9.13;4.68;;;;;;;;;;5046055;28;20029;-65
2023/09/09 07:57:42;;;;;;;13.75;5.00;;;;;;;;;;5045561;28;20498;-67
2023/09/09 08:00:07;;;;;;;8.55;4.50;;;;;;;;;;5038890;28;20028;-71
2023/09/09 08:02:33;;;;;;;8.13;4.70;;;;;;;;;;5036916;28;20040;-70
2023/09/09 08:04:58;;;;;;;9.68;5.00;;;;;;;;;;5045119;28;20009;-69
2023/09/09 08:07:23;;;;;;;12.73;5.53;;;;;;;;;;5040655;28;20453;-71
2023/09/09 08:09:49;;;;;;;12.43;5.20;;;;;;;;;;5040069;28;20479;-67
2023/09/09 08:12:14;;;;;;;10.23;4.27;;;;;;;;;;5045497;28;20055;-70
2023/09/09 08:14:40;;;;;;;11.90;4.38;;;;;;;;;;5028734;28;20366;-68
2023/09/09 08:17:05;;;;;;;13.35;4.57;;;;;;;;;;5028356;28;20538;-70
2023/09/09 08:19:30;;;;;;;14.98;5.10;;;;;;;;;;5032527;28;20097;-71
2023/09/09 08:21:56;;;;;;;12.75;5.05;;;;;;;;;;5024732;28;20033;-66
2023/09/09 08:24:21;;;;;;;12.63;4.68;;;;;;;;;;5024204;28;20100;-70
2023/09/09 08:26:47;;;;;;;10.18;4.75;;;;;;;;;;5028701;28;20036;-70
2023/09/09 08:29:12;;;;;;;13.05;4.55;;;;;;;;;;5024053;28;20032;-72
2023/09/09 08:31:38;;;;;;;10.00;4.53;;;;;;;;;;5025616;28;20036;-67
2023/09/09 08:34:03;;;;;;;12.50;4.53;;;;;;;;;;5029522;28;20120;-71
2023/09/09 08:36:28;;;;;;;9.75;4.40;;;;;;;;;;5032357;28;20498;-68
2023/09/09 08:38:56;;;;;;;8.00;4.55;;;;;;;;;;5030823;28;20018;-70
2023/09/09 08:41:24;;;;;;;6.97;3.83;;;;;;;;;;5028171;28;20024;-71
2023/09/09 08:43:59;;;;;;;12.20;4.70;;;;;;;;;;5033746;28;20029;-68
2023/09/09 08:46:24;;;;;;;20.40;4.35;;;;;;;;;;5028001;28;20021;-68
2023/09/09 08:48:50;;;;;;;21.20;5.05;;;;;;;;;;5029876;28;20253;-71
2023/09/09 08:51:17;;;;;;;15.70;4.28;;;;;;;;;;5031322;28;20375;-69
2023/09/09 08:53:43;;;;;;;13.43;5.50;;;;;;;;;;5020576;28;20024;-69
2023/09/09 08:56:12;;;;;;;10.45;4.32;;;;;;;;;;5029978;28;20461;-68
2023/09/09 08:58:38;;;;;;;9.40;4.60;;;;;;;;;;5027316;28;20037;-70
2023/09/09 09:01:04;;;;;;;9.20;4.85;;;;;;;;;;5024113;28;20028;-71
2023/09/09 09:03:29;;;;;;;7.03;4.00;;;;;;;;;;5018454;28;20029;-71
2023/09/09 09:05:55;;;;;;;9.75;4.88;;;;;;;;;;5018800;28;20026;-71
2023/09/09 09:08:21;;;;;;;15.52;4.60;;;;;;;;;;5027947;28;20030;-71
2023/09/09 09:10:47;;;;;;;7.72;4.80;;;;;;;;;;5028491;28;20104;-71
2023/09/09 09:13:12;;;;;;;8.77;4.10;;;;;;;;;;5029050;28;20573;-70
2023/09/09 09:15:39;;;;;;;15.52;4.55;;;;;;;;;;5029132;28;20502;-69
2023/09/09 09:18:04;;;;;;;15.23;4.53;;;;;;;;;;5027110;28;20036;-68
2023/09/09 09:20:30;;;;;;;13.77;4.63;;;;;;;;;;5018714;28;20100;-66
2023/09/09 09:22:59;;;;;;;10.80;4.88;;;;;;;;;;5040422;28;20024;-71
2023/09/09 09:25:26;;;;;;;8.20;4.10;;;;;;;;;;5032783;28;20026;-70
2023/09/09 09:27:51;;;;;;;9.45;4.55;;;;;;;;;;5024830;28;20033;-71
2023/09/09 09:30:23;;;;;;;11.90;4.18;;;;;;;;;;5030614;28;20020;-72
2023/09/09 09:32:55;;;;;;;11.90;4.30;;;;;;;;;;5030383;28;20036;-70
2023/09/09 09:35:24;;;;;;;12.35;5.10;;;;;;;;;;5016741;28;20505;-68
2023/09/09 09:37:50;;;;;;;12.23;4.32;;;;;;;;;;5023573;28;20067;-69
2023/09/09 09:40:15;;;;;;;8.75;4.28;;;;;;;;;;5030714;28;20108;-71
2023/09/09 09:42:42;;;;;;;12.02;4.35;;;;;;;;;;5027499;28;20071;-69
2023/09/09 09:45:08;;;;;;;9.80;4.65;;;;;;;;;;5030933;28;20017;-70
2023/09/09 09:47:43;;;;;;;12.45;5.10;;;;;;;;;;5020396;28;20012;-70
2023/09/09 09:50:15;;;;;;;8.77;4.55;;;;;;;;;;5029134;28;20025;-72
2023/09/09 09:52:45;;;;;;;9.15;4.45;;;;;;;;;;5028567;28;20018;-73
2023/09/09 09:55:16;;;;;;;8.73;4.28;;;;;;;;;;5029856;28;20103;-70
2023/09/09 09:57:41;;;;;;;9.98;4.43;;;;;;;;;;5025624;28;20014;-71
2023/09/09 10:00:07;;;;;;;9.98;4.47;;;;;;;;;;5030444;28;20093;-68
2023/09/09 10:02:33;;;;;;;7.75;4.05;;;;;;;;;;5026010;28;20080;-69
2023/09/09 10:04:59;;;;;;;7.82;4.25;;;;;;;;;;5025224;28;20013;-74
2023/09/09 10:07:26;;;;;;;6.88;3.78;;;;;;;;;;5030035;28;20021;-69
2023/09/09 10:09:55;;;;;;;8.18;4.43;;;;;;;;;;5028434;28;20063;-71
2023/09/09 10:12:40;;;;;;;10.25;4.07;;;;;;;;;;5018029;28;20029;-71
2023/09/09 10:15:05;;;;;;;10.15;4.25;;;;;;;;;;5026308;28;20028;-72
2023/09/09 10:17:31;;;;;;;11.57;4.30;;;;;;;;;;5013835;28;20033;-70
2023/09/09 10:19:57;;;;;;;7.80;3.88;;;;;;;;;;5021865;28;20029;-70
2023/09/09 10:22:23;;;;;;;9.32;4.22;;;;;;;;;;5022780;28;20108;-69
2023/09/09 10:24:49;;;;;;;8.30;4.00;;;;;;;;;;5019242;28;20021;-71
2023/09/09 10:27:16;;;;;;;8.90;4.53;;;;;;;;;;5019584;28;20018;-70
2023/09/09 10:29:41;;;;;;;9.43;4.20;;;;;;;;;;5018486;28;20030;-68
2023/09/09 10:32:07;;;;;;;8.13;3.78;;;;;;;;;;5017908;28;20021;-69
2023/09/09 10:34:33;;;;;;;11.25;4.10;;;;;;;;;;5029141;28;20078;-70
2023/09/09 10:37:00;;;;;;;9.57;4.20;;;;;;;;;;5027144;28;20135;-71
2023/09/09 10:39:26;;;;;;;8.00;3.85;;;;;;;;;;5025205;28;20076;-68
2023/09/09 10:41:52;;;;;;;10.10;4.45;;;;;;;;;;5026920;28;20051;-67
2023/09/09 10:44:17;;;;;;;7.45;4.13;;;;;;;;;;5025808;28;20024;-69
2023/09/09 10:46:43;;;;;;;7.82;3.83;;;;;;;;;;5027840;28;20025;-75
2023/09/09 10:49:08;;;;;;;8.50;4.40;;;;;;;;;;5020259;28;20398;-70
2023/09/09 10:51:48;;;;;;;6.30;3.80;;;;;;;;;;5029451;28;20013;-69
2023/09/09 10:54:14;;;;;;;9.35;3.50;;;;;;;;;;5026909;28;20421;-69
2023/09/09 10:56:47;;;;;;;9.27;3.80;;;;;;;;;;5028071;28;20528;-66
2023/09/09 10:59:16;;;;;;;16.52;4.35;;;;;;;;;;5029368;28;20033;-70
2023/09/09 11:01:42;;;;;;;8.68;4.00;;;;;;;;;;5029003;28;20372;-68
2023/09/09 11:04:17;;;;;;;12.02;4.05;;;;;;;;;;5024396;28;20022;-69
2023/09/09 11:06:57;;;;;;;11.02;4.00;;;;;;;;;;5025556;28;20620;-67
2023/09/09 11:09:27;;;;;;;8.40;4.22;;;;;;;;;;5018114;28;20079;-66
2023/09/09 11:11:54;;;;;;;7.22;3.85;;;;;;;;;;5026139;28;20045;-70
2023/09/09 11:14:20;;;;;;;9.07;3.65;;;;;;;;;;5023680;28;20033;-73
2023/09/09 11:16:48;;;;;;;11.98;3.88;;;;;;;;;;5025782;28;20029;-67
2023/09/09 11:19:14;;;;;;;10.80;4.22;;;;;;;;;;5027294;28;20406;-68
2023/09/09 11:21:59;;;;;;;8.50;3.60;;;;;;;;;;5024545;28;20542;-69
2023/09/09 11:24:25;;;;;;;9.93;3.78;;;;;;;;;;5018499;28;20056;-70
2023/09/09 11:26:55;;;;;;;8.55;3.80;;;;;;;;;;5018553;28;20025;-69
2023/09/09 11:29:20;;;;;;;10.85;3.75;;;;;;;;;;5025838;28;20029;-71
2023/09/09 11:31:46;;;;;;;6.80;3.60;;;;;;;;;;5023017;28;20029;-67
2023/09/09 11:34:11;;;;;;;6.90;3.63;;;;;;;;;;5025542;28;20029;-70
2023/09/09 11:36:36;;;;;;;6.55;3.75;;;;;;;;;;5028343;28;20036;-69
2023/09/09 11:39:03;;;;;;;7.65;3.97;;;;;;;;;;5023482;28;20025;-69
2023/09/09 11:41:30;;;;;;;6.35;3.33;;;;;;;;;;5022203;28;20637;-71
2023/09/09 11:43:58;;;;;;;7.65;3.72;;;;;;;;;;5022071;28;20049;-70
2023/09/09 11:46:28;;;;;;;7.47;3.88;;;;;;;;;;5019965;28;20022;-70
2023/09/09 11:48:53;;;;;;;8.55;3.63;;;;;;;;;;5025388;28;20037;-71
2023/09/09 11:51:19;;;;;;;11.27;4.18;;;;;;;;;;5028288;28;20121;-67
2023/09/09 11:53:45;;;;;;;7.93;3.67;;;;;;;;;;5028738;28;20022;-70
2023/09/09 11:56:13;;;;;;;11.55;3.95;;;;;;;;;;5032501;28;20032;-68
2023/09/09 11:58:41;;;;;;;;;;;;;;;;;;5031257;28;20162;-70
2023/09/09 12:01:07;;;;;;;7.15;3.80;;;;;;;;;;5029616;28;20370;-67
2023/09/09 12:03:33;;;;;;;13.32;4.35;;;;;;;;;;5029294;28;20024;-71
2023/09/09 12:05:58;;;;;;;10.35;4.15;;;;;;;;;;5031393;28;20017;-71
2023/09/09 12:08:24;;;;;;;7.00;3.65;;;;;;;;;;5031333;28;20016;-70
2023/09/09 12:10:49;;;;;;;7.18;3.83;;;;;;;;;;5032242;28;20021;-72
2023/09/09 12:13:15;;;;;;;11.60;3.67;;;;;;;;;;5030972;28;20025;-71
2023/09/09 12:15:42;;;;;;;7.05;3.42;;;;;;;;;;5032208;28;20107;-70
2023/09/09 12:18:14;;;;;;;9.48;3.75;;;;;;;;;;5031815;28;20028;-68
2023/09/09 12:21:01;;;;;;;15.13;3.95;;;;;;;;;;5020308;28;20443;-70
2023/09/09 12:23:27;;;;;;;;;;;;;;;;;;5032568;28;20485;-74
2023/09/09 12:25:53;;;;;;;9.77;3.95;;;;;;;;;;5023659;28;19913;-72
2023/09/09 12:28:18;;;;;;;7.32;3.95;;;;;;;;;;5031696;28;20021;-69
2023/09/09 12:30:43;;;;;;;8.52;3.65;;;;;;;;;;5026686;28;20033;-71
2023/09/09 12:33:13;;;;;;;8.55;4.43;;;;;;;;;;5029765;28;20626;-70
2023/09/09 12:35:45;;;;;;;7.97;3.45;;;;;;;;;;5023429;28;20029;-67
2023/09/09 12:38:11;;;;;;;9.35;3.55;;;;;;;;;;5023035;28;20056;-70
2023/09/09 12:41:02;;;;;;;6.82;3.47;;;;;;;;;;5026017;28;20052;-70
2023/09/09 12:43:28;;;;;;;10.15;3.90;;;;;;;;;;5026214;28;20479;-72
2023/09/09 12:45:58;;;;;;;10.38;3.80;;;;;;;;;;5021038;28;20095;-70
2023/09/09 12:48:23;;;;;;;7.25;3.85;;;;;;;;;;5024324;28;20020;-70
2023/09/09 12:50:48;;;;;;;6.78;3.70;;;;;;;;;;5022929;28;20450;-69
2023/09/09 12:53:14;;;;;;;6.93;3.92;;;;;;;;;;5023376;28;20518;-70
2023/09/09 12:55:39;;;;;;;7.50;3.20;;;;;;;;;;5022308;28;20021;-70
2023/09/09 12:58:05;;;;;;;9.48;3.88;;;;;;;;;;5022112;28;20021;-71
2023/09/09 13:00:30;;;;;;;9.82;3.75;;;;;;;;;;5023398;28;20047;-73
2023/09/09 13:02:55;;;;;;;6.80;3.63;;;;;;;;;;5022341;28;20113;-69
2023/09/09 13:05:21;;;;;;;6.63;3.37;;;;;;;;;;5022186;28;20097;-70
2023/09/09 13:07:49;;;;;;;9.00;3.83;;;;;;;;;;5022046;28;20284;-66
2023/09/09 13:10:15;;;;;;;8.43;3.50;;;;;;;;;;5031282;28;20014;-68
2023/09/09 13:12:41;;;;;;;10.30;3.88;;;;;;;;;;5031262;28;20032;-70
2023/09/09 13:15:06;;;;;;;10.68;4.43;;;;;;;;;;5031296;28;20025;-70
2023/09/09 13:17:31;;;;;;;8.88;4.00;;;;;;;;;;5038308;22;20045;-72
2023/09/09 13:19:56;;;;;;;7.87;3.20;;;;;;;;;;5010847;28;20021;-72
2023/09/09 13:22:22;;;;;;;7.32;3.50;;;;;;;;;;5008597;28;20256;-72
2023/09/09 13:24:47;;;;;;;15.30;4.00;;;;;;;;;;5010972;28;20017;-70
2023/09/09 13:27:12;;;;;;;8.37;4.20;;;;;;;;;;5010913;28;20251;-69
2023/09/09 13:29:37;;;;;;;6.93;3.83;;;;;;;;;;5010549;28;20259;-71
2023/09/09 13:32:03;;;;;;;9.48;3.25;;;;;;;;;;5010896;28;20029;-74
2023/09/09 13:34:28;;;;;;;10.00;3.85;;;;;;;;;;5010366;28;20391;-69
2023/09/09 13:36:54;;;;;;;11.77;5.38;;;;;;;;;;5009724;28;20161;-69
2023/09/09 13:39:19;;;;;;;7.75;3.88;;;;;;;;;;5008132;28;20030;-73
2023/09/09 13:41:45;;;;;;;6.85;3.78;;;;;;;;;;5003666;28;20028;-73
2023/09/09 13:44:10;;;;;;;8.80;3.85;;;;;;;;;;5010071;28;20029;-72
2023/09/09 13:46:35;;;;;;;9.75;3.75;;;;;;;;;;5010681;28;20045;-72
2023/09/09 13:49:01;;;;;;;11.83;3.43;;;;;;;;;;5009547;28;20020;-72
2023/09/09 13:51:26;;;;;;;9.50;3.50;;;;;;;;;;5016795;28;20268;-71
2023/09/09 13:53:51;;;;;;;6.40;3.30;;;;;;;;;;5020506;28;20255;-71
2023/09/09 13:56:16;;;;;;;8.37;3.53;;;;;;;;;;5018650;28;20021;-73
2023/09/09 13:58:42;;;;;;;6.43;3.80;;;;;;;;;;5018906;28;20274;-72
2023/09/09 14:01:07;;;;;;;13.30;4.20;;;;;;;;;;5013405;28;20024;-70
2023/09/09 14:03:32;;;;;;;12.93;3.63;;;;;;;;;;5013215;28;20037;-72
2023/09/09 14:05:58;;;;;;;6.15;3.50;;;;;;;;;;5014320;28;20094;-70
2023/09/09 14:08:23;;;;;;;8.75;3.50;;;;;;;;;;5017596;28;20036;-70
2023/09/09 14:10:48;;;;;;;9.23;3.45;;;;;;;;;;5019813;28;20028;-72
2023/09/09 14:13:14;;;;;;;9.77;3.80;;;;;;;;;;5017495;28;20029;-72
2023/09/09 14:15:39;;;;;;;11.40;4.43;;;;;;;;;;5017073;28;20311;-69
2023/09/09 14:18:04;;;;;;;8.50;3.57;;;;;;;;;;5016216;28;20116;-72
2023/09/09 14:20:29;;;;;;;6.00;3.63;;;;;;;;;;5020100;28;20409;-69
2023/09/09 14:22:54;;;;;;;8.80;3.70;;;;;;;;;;5022016;28;20346;-73
2023/09/09 14:25:20;;;;;;;7.80;3.53;;;;;;;;;;5018457;28;20249;-73
2023/09/09 14:27:45;;;;;;;7.35;3.63;;;;;;;;;;5018278;28;20250;-67
2023/09/09 14:30:11;;;;;;;7.28;3.67;;;;;;;;;;5015469;28;20026;-70